Time;durP1;ratioP1;P1;durP2;ratioP2;P2;SDS_P1;SDS_P2;PMS_P1;PMS_P2;Temp;Humidity;BMP_temperature;BMP_pressure;BME280_temperature;BME280_humidity;BME280_pressure;Samples;Min_cycle;Max_cycle;Signal;HPM_P1;HPM_P2
2024/02/15 00:01:04;;;;;;;11.25;9.13;;;;;;;4.61;56.25;95001.16;4241235;28;20078;-66
2024/02/15 00:03:13;;;;;;;11.45;9.27;;;;;;;4.64;56.07;94993.94;4223586;28;20059;-66
2024/02/15 00:05:15;;;;;;;10.65;9.43;;;;;;;4.56;55.79;95005.84;4236588;28;20042;-65
2024/02/15 00:07:22;;;;;;;12.07;9.73;;;;;;;4.70;56.33;94998.69;4235826;27;20505;-66
2024/02/15 00:09:24;;;;;;;10.70;8.98;;;;;;;4.71;55.89;95004.69;4242249;27;20055;-69
2024/02/15 00:11:26;;;;;;;11.20;9.60;;;;;;;4.74;56.42;94999.28;4238730;27;20051;-68
2024/02/15 00:13:28;;;;;;;11.07;9.68;;;;;;;4.79;55.45;94997.16;4225102;27;20531;-66
2024/02/15 00:15:30;;;;;;;11.93;9.52;;;;;;;4.78;55.39;95008.50;4239875;27;20127;-67
2024/02/15 00:17:32;;;;;;;13.55;9.25;;;;;;;4.74;56.24;95006.25;4232305;27;20150;-67
2024/02/15 00:19:36;;;;;;;12.15;9.43;;;;;;;4.67;55.87;95008.47;4242533;27;20440;-68
2024/02/15 00:21:43;;;;;;;10.73;9.63;;;;;;;4.74;55.95;95001.88;4244428;27;20421;-68
2024/02/15 00:23:45;;;;;;;11.00;8.60;;;;;;;4.75;55.31;95002.69;4241379;27;20130;-69
2024/02/15 00:25:49;;;;;;;10.43;8.63;;;;;;;4.79;56.02;95006.72;4244695;27;20047;-68
2024/02/15 00:27:51;;;;;;;10.40;9.10;;;;;;;4.86;55.41;95011.34;4240498;27;20406;-68
2024/02/15 00:29:53;;;;;;;11.32;9.27;;;;;;;4.84;54.99;95012.38;4239272;27;20047;-68
2024/02/15 00:31:55;;;;;;;12.20;8.90;;;;;;;4.91;55.18;95011.81;4244551;27;20043;-69
2024/02/15 00:33:58;;;;;;;11.55;9.68;;;;;;;4.93;54.79;95017.69;4234873;27;20061;-69
2024/02/15 00:36:01;;;;;;;11.82;9.00;;;;;;;5.01;54.89;95021.47;4239575;27;20051;-67
2024/02/15 00:38:03;;;;;;;11.43;8.60;;;;;;;5.07;54.50;95013.22;4240029;27;20043;-67
2024/02/15 00:40:07;;;;;;;11.73;8.90;;;;;;;5.04;54.97;95016.88;4232916;27;20051;-67
2024/02/15 00:42:09;;;;;;;10.18;8.88;;;;;;;5.01;54.54;95016.28;4241293;27;20048;-65
2024/02/15 00:44:11;;;;;;;12.10;9.10;;;;;;;4.90;54.31;95015.34;4221506;28;20044;-68
2024/02/15 00:46:14;;;;;;;10.68;9.45;;;;;;;4.78;54.85;95018.88;4236267;27;20055;-67
2024/02/15 00:48:15;;;;;;;11.82;8.98;;;;;;;4.79;55.30;95014.50;4233024;27;20173;-67
2024/02/15 00:50:18;;;;;;;12.32;9.25;;;;;;;4.75;55.40;95016.50;4242118;27;20050;-68
2024/02/15 00:52:19;;;;;;;10.20;9.10;;;;;;;4.76;54.89;95014.75;4240261;27;20070;-68
2024/02/15 00:54:22;;;;;;;10.65;9.07;;;;;;;4.80;55.30;95016.16;4242786;27;20055;-68
2024/02/15 00:56:24;;;;;;;10.50;9.00;;;;;;;4.69;54.96;95019.56;4226368;28;20531;-67
2024/02/15 00:58:27;;;;;;;11.55;8.98;;;;;;;4.71;55.58;95012.47;4230575;27;20126;-68
2024/02/15 01:00:29;;;;;;;11.73;8.80;;;;;;;4.78;54.95;95012.88;4244399;27;20083;-68
2024/02/15 01:02:30;;;;;;;9.93;8.90;;;;;;;4.76;55.24;95012.16;4244218;27;20695;-69
2024/02/15 01:04:32;;;;;;;12.60;9.20;;;;;;;4.73;55.15;95018.38;4241770;27;20070;-68
2024/02/15 01:06:34;;;;;;;12.20;8.90;;;;;;;4.71;55.28;95015.06;4243838;27;20660;-69
2024/02/15 01:08:36;;;;;;;10.00;8.52;;;;;;;4.72;54.98;95014.13;4232785;27;20480;-69
2024/02/15 01:10:39;;;;;;;11.00;8.88;;;;;;;4.73;55.82;95015.78;4235596;27;21155;-67
2024/02/15 01:12:41;;;;;;;10.40;8.75;;;;;;;4.81;55.22;95008.25;4243711;27;20057;-67
2024/02/15 01:14:43;;;;;;;12.55;9.85;;;;;;;4.81;55.08;95010.03;4226008;28;20063;-68
2024/02/15 01:16:46;;;;;;;11.68;9.15;;;;;;;4.85;54.75;95007.06;4219634;27;20047;-68
2024/02/15 01:18:49;;;;;;;11.30;9.20;;;;;;;4.90;54.93;95014.50;4240356;27;20044;-67
2024/02/15 01:20:52;;;;;;;11.95;8.85;;;;;;;4.77;55.40;95006.00;4243310;27;20057;-67
2024/02/15 01:22:54;;;;;;;9.43;8.43;;;;;;;4.82;55.01;95007.31;4238983;27;20039;-68
2024/02/15 01:24:58;;;;;;;13.00;9.20;;;;;;;4.80;54.87;95009.19;4230582;27;20132;-68
2024/02/15 01:26:59;;;;;;;;;;;;;;;4.89;55.30;95002.47;4242819;27;20717;-67
2024/02/15 01:29:03;;;;;;;12.82;8.93;;;;;;;4.96;54.89;95016.63;4240421;27;20400;-67
2024/02/15 01:31:06;;;;;;;10.80;9.23;;;;;;;4.91;54.37;95013.56;4239864;27;20484;-68
2024/02/15 01:33:09;;;;;;;11.52;9.52;;;;;;;4.95;54.88;95012.41;4241865;27;20391;-67
2024/02/15 01:35:12;;;;;;;12.70;9.85;;;;;;;4.77;55.18;95009.41;4242559;27;20043;-68
2024/02/15 01:37:14;;;;;;;14.65;9.50;;;;;;;4.82;55.47;95009.91;4241519;27;20407;-67
2024/02/15 01:39:17;;;;;;;11.93;9.18;;;;;;;4.79;55.32;95004.94;4241320;27;20087;-67
2024/02/15 01:41:19;;;;;;;11.73;9.25;;;;;;;4.74;55.71;95009.66;4240285;27;20066;-68
2024/02/15 01:43:21;;;;;;;11.02;9.30;;;;;;;4.82;55.38;95009.06;4240317;27;20142;-67
2024/02/15 01:45:23;;;;;;;11.20;9.05;;;;;;;4.68;55.42;95010.13;4239580;27;20402;-67
2024/02/15 01:47:24;;;;;;;9.73;8.73;;;;;;;4.75;55.37;95013.06;4224038;28;20681;-66
2024/02/15 01:49:27;;;;;;;13.60;9.40;;;;;;;4.78;54.69;95005.06;4234806;27;20125;-66
2024/02/15 01:51:29;;;;;;;11.07;9.48;;;;;;;4.78;55.58;95024.06;4237196;27;20047;-67
2024/02/15 01:53:32;;;;;;;11.10;8.60;;;;;;;4.72;54.82;95019.31;4223613;28;20181;-67
2024/02/15 01:55:34;;;;;;;12.18;9.23;;;;;;;4.66;55.33;95009.41;4243467;27;20039;-67
2024/02/15 01:57:40;;;;;;;14.98;9.32;;;;;;;4.65;55.67;95018.16;4243506;27;20047;-68
2024/02/15 01:59:41;;;;;;;12.40;10.00;;;;;;;4.70;55.30;95016.03;4224314;28;20537;-68
2024/02/15 02:01:44;;;;;;;11.80;9.82;;;;;;;4.74;54.91;95009.66;4242829;27;20427;-67
2024/02/15 02:03:46;;;;;;;10.40;9.30;;;;;;;4.72;54.91;95016.72;4242095;27;20130;-68
2024/02/15 02:05:48;;;;;;;12.32;9.65;;;;;;;4.67;55.48;95011.06;4242785;27;20071;-66
2024/02/15 02:07:49;;;;;;;10.88;9.57;;;;;;;4.59;55.70;95016.00;4243085;27;20516;-67
2024/02/15 02:09:52;;;;;;;11.48;10.02;;;;;;;4.56;55.35;95021.41;4242428;27;20460;-69
2024/02/15 02:11:54;;;;;;;11.55;9.75;;;;;;;4.56;56.15;95016.22;4242267;27;20436;-69
2024/02/15 02:13:56;;;;;;;11.80;9.90;;;;;;;4.59;55.69;95022.00;4224579;28;20040;-69
2024/02/15 02:15:59;;;;;;;12.55;9.68;;;;;;;4.61;55.65;95021.91;4224435;28;20058;-68
2024/02/15 02:18:02;;;;;;;11.82;9.45;;;;;;;4.54;55.38;95026.72;4237823;27;20050;-68
2024/02/15 02:20:08;;;;;;;10.65;8.88;;;;;;;4.55;56.06;95019.78;4238054;27;20088;-68
2024/02/15 02:22:11;;;;;;;11.32;9.18;;;;;;;4.58;55.51;95019.53;4242556;27;20112;-68
2024/02/15 02:24:14;;;;;;;12.70;10.02;;;;;;;4.50;55.90;95022.72;4237192;27;20047;-66
2024/02/15 02:26:16;;;;;;;11.77;9.70;;;;;;;4.55;56.17;95023.19;4218531;28;20142;-68
2024/02/15 02:28:18;;;;;;;13.45;10.25;;;;;;;4.46;55.77;95029.88;4236485;27;20043;-67
2024/02/15 02:30:22;;;;;;;12.57;10.52;;;;;;;4.43;55.67;95026.69;4236031;27;20051;-68
2024/02/15 02:32:24;;;;;;;;;;;;;;;4.50;56.10;95022.72;4237193;27;20055;-68
2024/02/15 02:34:25;;;;;;;12.40;9.05;;;;;;;4.58;55.54;95019.53;4237597;27;19919;-68
2024/02/15 02:36:29;;;;;;;12.35;10.35;;;;;;;4.64;55.96;95026.84;4218675;28;20047;-68
2024/02/15 02:38:31;;;;;;;15.48;10.27;;;;;;;4.61;55.05;95027.09;4239692;27;20047;-67
2024/02/15 02:40:33;;;;;;;11.48;9.93;;;;;;;4.42;56.07;95031.06;4239795;27;20063;-67
2024/02/15 02:42:37;;;;;;;12.52;9.85;;;;;;;4.54;56.01;95031.06;4217755;28;20194;-68
2024/02/15 02:44:39;;;;;;;12.43;9.75;;;;;;;4.48;55.81;95030.59;4220784;28;20048;-67
2024/02/15 02:46:42;;;;;;;13.77;10.50;;;;;;;4.49;55.46;95031.41;4243195;27;20047;-68
2024/02/15 02:48:44;;;;;;;11.98;9.88;;;;;;;4.50;55.96;95035.69;4241194;28;20069;-67
2024/02/15 02:50:48;;;;;;;12.75;10.10;;;;;;;4.44;55.85;95033.53;4239537;27;20051;-67
2024/02/15 02:52:50;;;;;;;12.93;10.45;;;;;;;4.50;55.82;95030.50;4232073;28;20067;-67
2024/02/15 02:54:52;;;;;;;12.30;10.50;;;;;;;4.51;56.01;95040.72;4232689;28;20040;-68
2024/02/15 02:56:54;;;;;;;11.55;9.98;;;;;;;4.53;55.53;95037.22;4232902;28;20140;-69
2024/02/15 02:58:56;;;;;;;12.90;10.50;;;;;;;4.46;55.97;95029.88;4234214;28;20554;-67
2024/02/15 03:01:00;;;;;;;12.75;10.80;;;;;;;4.54;55.61;95033.66;4241440;28;20139;-67
2024/02/15 03:03:02;;;;;;;12.27;10.65;;;;;;;4.62;55.81;95032.16;4242712;28;20045;-66
2024/02/15 03:05:05;;;;;;;12.98;11.13;;;;;;;4.65;55.46;95034.53;4234685;28;20080;-67
2024/02/15 03:07:08;;;;;;;12.05;10.77;;;;;;;4.66;55.29;95032.75;4242561;28;20043;-66
2024/02/15 03:09:15;;;;;;;13.90;11.07;;;;;;;4.56;55.51;95034.38;4241337;28;20051;-67
2024/02/15 03:11:17;;;;;;;11.77;10.55;;;;;;;4.47;55.44;95041.06;4204990;28;20123;-69
2024/02/15 03:13:20;;;;;;;13.52;10.70;;;;;;;4.43;56.07;95037.06;4220885;28;20056;-67
2024/02/15 03:15:22;;;;;;;14.80;11.13;;;;;;;4.37;56.33;95040.13;4242464;28;20047;-68
2024/02/15 03:17:24;;;;;;;13.00;10.98;;;;;;;4.33;56.82;95039.50;4238861;28;20059;-67
2024/02/15 03:19:26;;;;;;;15.48;11.23;;;;;;;4.28;56.67;95050.22;4235827;28;20047;-69
2024/02/15 03:21:29;;;;;;;15.25;11.27;;;;;;;4.30;56.20;95048.34;4241471;28;20047;-66
2024/02/15 03:23:33;;;;;;;13.82;11.38;;;;;;;4.25;56.68;95041.84;4241989;28;20442;-68
2024/02/15 03:25:35;;;;;;;14.18;11.55;;;;;;;4.24;56.49;95050.56;4240645;28;20127;-68
2024/02/15 03:27:37;;;;;;;14.45;11.90;;;;;;;4.19;56.61;95053.47;4234765;28;21248;-68
2024/02/15 03:29:39;;;;;;;14.02;11.45;;;;;;;4.08;57.00;95043.88;4238605;28;20069;-68
2024/02/15 03:31:41;;;;;;;14.93;11.73;;;;;;;4.19;57.64;95055.25;4234504;28;20055;-68
2024/02/15 03:33:43;;;;;;;14.40;11.57;;;;;;;4.30;56.63;95056.13;4238506;28;20051;-68
2024/02/15 03:35:45;;;;;;;13.55;12.15;;;;;;;4.34;56.39;95053.31;4239280;28;20070;-68
2024/02/15 03:37:50;;;;;;;17.13;11.32;;;;;;;4.29;56.65;95053.66;4237786;28;20060;-66
2024/02/15 03:39:52;;;;;;;14.50;12.15;;;;;;;4.26;56.92;95051.28;4234659;28;20122;-69
2024/02/15 03:41:55;;;;;;;17.17;11.98;;;;;;;4.18;57.37;95049.25;4240086;27;20477;-67
2024/02/15 03:43:58;;;;;;;15.33;12.23;;;;;;;4.16;56.38;95055.47;4236340;27;20085;-68
2024/02/15 03:46:00;;;;;;;14.05;12.05;;;;;;;3.99;57.59;95047.16;4234138;27;20280;-67
2024/02/15 03:48:05;;;;;;;15.55;12.60;;;;;;;3.93;57.59;95052.78;4242712;27;20118;-67
2024/02/15 03:50:14;;;;;;;17.08;12.60;;;;;;;3.90;57.12;95059.00;4244679;27;20054;-67
2024/02/15 03:52:17;;;;;;;15.18;12.80;;;;;;;3.94;57.73;95057.03;4242836;27;20499;-67
2024/02/15 03:54:19;;;;;;;14.05;11.93;;;;;;;3.93;57.17;95055.34;4245170;27;20156;-67
2024/02/15 03:56:21;;;;;;;16.08;12.00;;;;;;;3.95;57.56;95056.06;4244898;27;20074;-69
2024/02/15 03:58:23;;;;;;;18.60;12.45;;;;;;;3.94;57.30;95051.84;4245045;27;20054;-68
2024/02/15 04:00:25;;;;;;;13.45;11.50;;;;;;;3.99;57.36;95054.09;4239385;27;20097;-68
2024/02/15 04:02:29;;;;;;;14.75;12.05;;;;;;;4.04;57.68;95054.59;4232132;27;20073;-68
2024/02/15 04:04:31;;;;;;;15.93;12.93;;;;;;;3.95;57.21;95056.06;4221756;28;20165;-71
2024/02/15 04:06:33;;;;;;;14.00;11.82;;;;;;;3.93;58.06;95057.13;4242986;27;20364;-67
2024/02/15 04:08:38;;;;;;;15.60;12.60;;;;;;;3.88;57.49;95053.09;4245674;27;20211;-69
2024/02/15 04:10:41;;;;;;;18.15;12.25;;;;;;;3.88;57.63;95052.28;4244807;27;20072;-70
2024/02/15 04:12:43;;;;;;;14.65;11.32;;;;;;;3.77;57.87;95053.03;4243187;27;20079;-69
2024/02/15 04:14:45;;;;;;;15.43;12.13;;;;;;;3.75;58.27;95054.09;4245906;27;20572;-68
2024/02/15 04:16:46;;;;;;;13.82;12.25;;;;;;;3.73;57.66;95056.78;4246308;27;20506;-67
2024/02/15 04:18:48;;;;;;;13.90;11.70;;;;;;;3.73;58.22;95055.97;4243512;27;20051;-67
2024/02/15 04:20:51;;;;;;;14.40;11.43;;;;;;;3.78;57.64;95057.28;4238292;27;20120;-68
2024/02/15 04:22:54;;;;;;;15.38;12.30;;;;;;;3.85;57.48;95060.25;4235133;27;20035;-67
2024/02/15 04:24:56;;;;;;;14.85;12.18;;;;;;;3.82;58.22;95060.50;4241394;27;20043;-68
2024/02/15 04:26:58;;;;;;;14.50;12.13;;;;;;;3.83;58.17;95060.38;4244782;27;20455;-67
2024/02/15 04:29:00;;;;;;;15.93;12.38;;;;;;;3.88;57.80;95067.84;4222795;28;20043;-67
2024/02/15 04:31:02;;;;;;;14.68;12.23;;;;;;;3.94;57.85;95054.44;4239948;27;20581;-69
2024/02/15 04:33:08;;;;;;;18.20;12.63;;;;;;;4.06;57.19;95055.31;4239922;27;20070;-68
2024/02/15 04:35:11;;;;;;;16.42;12.65;;;;;;;4.05;57.18;95061.44;4244612;27;20047;-67
2024/02/15 04:37:16;;;;;;;13.98;12.40;;;;;;;4.01;57.55;95065.19;4243876;27;20122;-67
2024/02/15 04:39:27;;;;;;;16.13;12.30;;;;;;;4.02;57.09;95072.88;4239916;27;20046;-66
2024/02/15 04:41:30;;;;;;;15.27;12.32;;;;;;;4.09;57.37;95073.25;4245060;27;20125;-67
2024/02/15 04:43:33;;;;;;;15.75;13.48;;;;;;;4.03;56.64;95071.91;4232134;27;20043;-67
2024/02/15 04:45:35;;;;;;;13.60;11.65;;;;;;;3.93;57.73;95070.91;4235249;27;20065;-67
2024/02/15 04:47:37;;;;;;;16.23;12.63;;;;;;;3.86;57.50;95080.06;4223737;28;20077;-68
2024/02/15 04:49:39;;;;;;;19.52;12.10;;;;;;;3.85;57.80;95055.06;4225516;27;20101;-69
2024/02/15 04:51:42;;;;;;;16.23;12.32;;;;;;;3.71;57.48;95068.19;4239340;27;20158;-68
2024/02/15 04:53:46;;;;;;;17.90;12.93;;;;;;;3.67;57.89;95073.59;4242334;27;20070;-68
2024/02/15 04:55:48;;;;;;;14.18;11.95;;;;;;;3.62;58.42;95072.28;4244534;27;20053;-67
2024/02/15 04:57:54;;;;;;;17.17;13.10;;;;;;;3.65;58.11;95083.22;4222503;28;20621;-68
2024/02/15 04:59:59;;;;;;;14.63;12.25;;;;;;;3.73;58.21;95080.09;4242402;27;20501;-68
2024/02/15 05:02:01;;;;;;;15.05;12.13;;;;;;;3.64;58.62;95091.13;4238633;27;20051;-69
2024/02/15 05:04:07;;;;;;;16.27;12.63;;;;;;;3.64;58.14;95091.94;4224546;28;20079;-68
2024/02/15 05:06:09;;;;;;;14.60;12.07;;;;;;;3.67;58.21;95091.72;4242953;27;20070;-68
2024/02/15 05:08:11;;;;;;;16.40;12.50;;;;;;;3.71;58.61;95096.72;4242223;27;20368;-67
2024/02/15 05:10:14;;;;;;;17.05;13.15;;;;;;;3.71;58.08;95094.94;4243664;27;20043;-68
2024/02/15 05:12:24;;;;;;;16.25;12.38;;;;;;;3.73;58.38;95102.59;4236664;27;20206;-68
2024/02/15 05:14:26;;;;;;;14.55;11.88;;;;;;;3.64;58.34;95102.31;4225254;27;20043;-68
2024/02/15 05:16:28;;;;;;;16.00;11.98;;;;;;;3.65;58.00;95106.53;4220895;27;20100;-68
2024/02/15 05:18:30;;;;;;;13.88;12.25;;;;;;;3.67;58.55;95106.44;4244487;27;20095;-68
2024/02/15 05:20:34;;;;;;;14.95;12.10;;;;;;;3.77;57.93;95104.88;4243127;27;20455;-69
2024/02/15 05:22:36;;;;;;;18.80;12.80;;;;;;;3.76;57.76;95110.16;4243040;27;20051;-69
2024/02/15 05:24:38;;;;;;;17.70;12.60;;;;;;;3.65;58.59;95097.94;4224958;28;20051;-68
2024/02/15 05:26:48;;;;;;;17.58;12.52;;;;;;;3.72;57.96;95103.53;4244864;27;20053;-67
2024/02/15 05:28:50;;;;;;;21.00;13.88;;;;;;;3.84;58.06;95107.84;4240474;27;20051;-68
2024/02/15 05:31:17;;;;;;;19.15;13.25;;;;;;;3.80;58.03;95103.81;4231990;27;20064;-71
2024/02/15 05:33:21;;;;;;;17.38;12.43;;;;;;;3.84;57.95;95113.03;4243512;27;20506;-71
2024/02/15 05:35:24;;;;;;;27.80;12.27;;;;;;;3.79;57.85;95109.97;4242673;27;20538;-67
2024/02/15 05:37:27;;;;;;;13.65;11.50;;;;;;;3.68;58.13;95110.72;4239618;27;20051;-68
2024/02/15 05:39:29;;;;;;;14.32;11.85;;;;;;;3.70;58.01;95116.63;4233589;27;20096;-69
2024/02/15 05:41:34;;;;;;;19.17;12.50;;;;;;;3.82;58.08;95115.72;4242855;27;20051;-67
2024/02/15 05:43:38;;;;;;;21.85;12.30;;;;;;;3.74;57.85;95119.78;4239872;27;20078;-68
2024/02/15 05:45:40;;;;;;;;;;;;;;;3.74;58.16;95118.03;4241836;27;20129;-68
2024/02/15 05:47:42;;;;;;;16.23;11.52;;;;;;;3.81;58.03;95123.63;4243475;27;19926;-69
2024/02/15 05:49:44;;;;;;;20.70;12.25;;;;;;;3.85;57.55;95131.09;4230097;27;20087;-68
2024/02/15 05:51:48;;;;;;;21.05;12.07;;;;;;;3.66;57.94;95136.72;4242370;27;20051;-68
2024/02/15 05:53:50;;;;;;;16.13;12.32;;;;;;;3.53;58.51;95140.25;4243219;27;20054;-69
2024/02/15 05:55:52;;;;;;;16.45;11.75;;;;;;;3.61;58.73;95132.78;4207336;28;20048;-70
2024/02/15 05:57:54;;;;;;;16.10;12.55;;;;;;;3.67;57.86;95133.19;4236052;27;20047;-69
2024/02/15 05:59:56;;;;;;;16.13;12.10;;;;;;;3.69;58.47;95139.06;4241241;27;20053;-70
2024/02/15 06:02:08;;;;;;;15.18;11.80;;;;;;;3.74;57.62;95132.75;4243694;27;20059;-70
2024/02/15 06:04:10;;;;;;;16.80;12.10;;;;;;;3.79;58.10;95136.69;4215302;28;20048;-69
2024/02/15 06:06:12;;;;;;;15.70;12.27;;;;;;;3.75;57.58;95130.06;4239759;27;20062;-71
2024/02/15 06:08:15;;;;;;;15.95;12.30;;;;;;;3.64;58.34;95130.81;4242115;27;20208;-70
2024/02/15 06:10:17;;;;;;;18.33;12.20;;;;;;;3.71;58.29;95132.97;4223010;28;20088;-71
2024/02/15 06:12:20;;;;;;;18.05;12.02;;;;;;;3.77;57.79;95145.50;4240570;27;20168;-68
2024/02/15 06:14:21;;;;;;;14.43;12.18;;;;;;;3.65;58.46;95142.81;4242382;27;20096;-69
2024/02/15 06:16:26;;;;;;;18.02;12.32;;;;;;;3.55;58.47;95159.09;4242505;27;20511;-71
2024/02/15 06:18:29;;;;;;;14.15;11.43;;;;;;;3.56;58.78;95145.22;4242823;27;20554;-69
2024/02/15 06:20:33;;;;;;;20.13;13.00;;;;;;;3.55;59.05;95152.19;4242955;27;20043;-69
2024/02/15 06:22:35;;;;;;;23.23;12.20;;;;;;;3.56;58.74;95146.06;4242429;27;20043;-70
2024/02/15 06:24:37;;;;;;;19.95;13.48;;;;;;;3.55;58.41;95148.72;4224933;28;20136;-69
2024/02/15 06:26:42;;;;;;;15.95;12.55;;;;;;;3.56;58.43;95159.00;4234023;27;20138;-67
2024/02/15 06:40:30;;;;;;;16.27;11.98;;;;;;;3.83;58.13;95176.16;4240221;27;20130;-68
2024/02/15 06:42:33;;;;;;;16.83;11.93;;;;;;;3.79;58.54;95166.97;4214080;28;20062;-69
2024/02/15 06:44:35;;;;;;;17.13;12.53;;;;;;;3.72;57.78;95171.72;4243299;27;20050;-69
2024/02/15 06:46:38;;;;;;;16.23;12.43;;;;;;;3.66;58.75;95167.81;4241168;27;20087;-69
2024/02/15 06:48:46;;;;;;;16.75;12.07;;;;;;;3.69;58.26;95177.13;4232098;28;20043;-69
2024/02/15 06:50:49;;;;;;;18.50;12.43;;;;;;;3.64;58.42;95182.63;4243174;27;20083;-71
2024/02/15 06:52:51;;;;;;;18.15;12.27;;;;;;;3.70;58.40;95176.22;4236477;27;20058;-70
2024/02/15 06:54:53;;;;;;;18.23;13.05;;;;;;;3.77;58.05;95174.03;4242095;27;20058;-69
2024/02/15 06:56:55;;;;;;;18.25;12.80;;;;;;;3.91;57.68;95176.47;4221633;28;20077;-69
2024/02/15 06:58:58;;;;;;;17.90;13.10;;;;;;;3.90;58.31;95182.59;4238123;28;20039;-69
2024/02/15 07:01:00;;;;;;;15.15;12.25;;;;;;;3.88;57.70;95180.09;4231825;28;20159;-68
2024/02/15 07:03:02;;;;;;;19.13;12.95;;;;;;;3.88;58.12;95176.69;4240778;28;20469;-68
2024/02/15 07:05:04;;;;;;;21.63;12.60;;;;;;;3.91;58.09;95181.66;4242710;28;20043;-69
2024/02/15 07:07:06;;;;;;;19.92;13.20;;;;;;;3.87;57.36;95180.19;4235829;28;20410;-68
2024/02/15 07:09:09;;;;;;;14.30;11.90;;;;;;;4.02;57.61;95175.72;4237432;28;20797;-68
2024/02/15 07:11:12;;;;;;;18.33;12.93;;;;;;;3.95;57.66;95177.91;4242947;28;20179;-69
2024/02/15 07:13:13;;;;;;;20.25;13.20;;;;;;;3.94;57.56;95178.03;4242225;28;20126;-70
2024/02/15 07:15:17;;;;;;;17.52;11.98;;;;;;;3.94;57.29;95176.25;4242495;28;20225;-67
2024/02/15 07:17:20;;;;;;;16.70;12.23;;;;;;;4.10;56.83;95171.66;4244994;27;20042;-68
2024/02/15 07:19:21;;;;;;;18.73;12.57;;;;;;;4.21;56.96;95157.09;4243696;27;20066;-71
2024/02/15 07:21:27;;;;;;;17.15;12.57;;;;;;;4.37;56.82;95164.63;4235873;27;20115;-69
2024/02/15 07:23:29;;;;;;;14.95;11.88;;;;;;;4.47;56.07;95168.19;4227754;28;20063;-68
2024/02/15 07:25:31;;;;;;;15.05;12.13;;;;;;;4.49;56.09;95156.78;4243095;27;20101;-68
2024/02/15 07:27:34;;;;;;;16.55;12.70;;;;;;;3.62;57.54;95163.75;4244829;27;20074;-68
2024/02/15 07:29:37;;;;;;;18.08;12.07;;;;;;;3.89;58.22;95155.00;4237228;27;20053;-71
2024/02/15 07:31:40;;;;;;;16.70;11.57;;;;;;;4.12;57.11;95156.00;4245842;27;20589;-71
2024/02/15 07:33:43;;;;;;;15.52;11.52;;;;;;;4.33;56.33;95158.00;4245601;27;20346;-67
2024/02/15 07:35:45;;;;;;;13.60;11.68;;;;;;;4.39;55.71;95157.53;4225871;27;20055;-67
2024/02/15 07:37:55;;;;;;;15.20;11.60;;;;;;;4.58;54.82;95162.25;4245374;27;20523;-70
2024/02/15 07:39:58;;;;;;;17.85;11.48;;;;;;;4.73;54.91;95145.53;4246227;27;20503;-69
2024/02/15 07:42:00;;;;;;;19.50;11.43;;;;;;;4.78;54.36;95158.22;4244487;27;20050;-69
2024/02/15 07:44:03;;;;;;;17.27;11.15;;;;;;;4.69;54.64;95150.16;4241583;27;20054;-68
2024/02/15 07:46:05;;;;;;;16.58;11.88;;;;;;;4.43;55.84;95157.25;4246003;27;20452;-69
2024/02/15 07:48:07;;;;;;;16.20;12.20;;;;;;;4.28;56.25;95151.38;4243836;27;20043;-71
2024/02/15 07:50:09;;;;;;;15.35;11.50;;;;;;;4.47;55.05;95153.50;4243829;27;20512;-69
2024/02/15 07:52:11;;;;;;;16.25;11.30;;;;;;;4.46;55.21;95151.00;4240594;27;20546;-67
2024/02/15 07:54:15;;;;;;;14.73;12.07;;;;;;;4.31;55.65;95150.31;4241677;27;20043;-69
2024/02/15 07:56:18;;;;;;;17.70;10.75;;;;;;;3.60;57.90;95149.25;4245830;27;20100;-70
2024/02/15 07:58:22;;;;;;;13.88;9.98;;;;;;;3.92;57.34;95146.22;4240729;27;20564;-69
2024/02/15 08:00:26;;;;;;;20.60;11.75;;;;;;;4.04;56.41;95156.53;4236631;27;20088;-69
2024/02/15 08:02:28;;;;;;;16.35;11.38;;;;;;;4.30;56.16;95154.69;4245829;27;20074;-67
2024/02/15 08:04:31;;;;;;;18.02;12.52;;;;;;;4.28;56.71;95159.16;4245777;27;20117;-68
2024/02/15 08:06:33;;;;;;;15.00;11.02;;;;;;;3.75;57.81;95150.78;4226248;27;20047;-69
2024/02/15 08:08:35;;;;;;;13.05;11.32;;;;;;;3.77;57.99;95153.28;4245618;27;20055;-69
2024/02/15 08:10:37;;;;;;;15.88;12.43;;;;;;;3.85;57.99;95140.59;4238893;27;20047;-68
2024/02/15 08:12:43;;;;;;;16.08;11.43;;;;;;;4.29;57.63;95145.25;4229919;27;20048;-67
2024/02/15 08:14:45;;;;;;;19.63;13.07;;;;;;;4.27;56.06;95141.09;4234862;27;20070;-69
2024/02/15 08:16:47;;;;;;;14.35;11.68;;;;;;;4.21;56.18;95149.31;4224453;28;20582;-69
2024/02/15 08:18:54;;;;;;;15.43;11.32;;;;;;;4.41;55.97;95142.69;4245298;27;20119;-68
2024/02/15 08:20:57;;;;;;;14.40;11.35;;;;;;;4.52;56.03;95150.56;4213750;28;20123;-69
2024/02/15 08:22:59;;;;;;;18.23;12.68;;;;;;;4.28;56.61;95143.59;4225422;28;20051;-68
2024/02/15 08:25:01;;;;;;;19.33;12.20;;;;;;;4.25;56.58;95143.81;4236339;27;20436;-68
2024/02/15 08:27:04;;;;;;;19.83;13.77;;;;;;;4.25;57.15;95142.97;4245409;27;20066;-69
2024/02/15 08:29:06;;;;;;;18.98;13.77;;;;;;;4.10;57.87;95130.16;4224634;27;20049;-69
2024/02/15 08:31:09;;;;;;;16.48;11.20;;;;;;;4.39;57.69;95139.38;4237787;27;20047;-69
2024/02/15 08:33:11;;;;;;;13.50;10.68;;;;;;;4.83;56.14;95136.16;4223741;28;20511;-67
2024/02/15 08:35:14;;;;;;;12.85;11.00;;;;;;;5.01;54.68;95143.50;4245324;27;20133;-71
2024/02/15 08:37:17;;;;;;;19.80;12.10;;;;;;;5.23;54.95;95125.41;4243819;27;20054;-70
2024/02/15 08:39:18;;;;;;;16.13;11.70;;;;;;;5.58;53.99;95134.88;4235105;27;20057;-67
2024/02/15 08:41:23;;;;;;;57.78;24.98;;;;;;;5.20;55.07;95137.78;4244379;27;20058;-66
2024/02/15 08:43:25;;;;;;;22.60;13.90;;;;;;;4.39;57.08;95142.81;4244420;27;20476;-70
2024/02/15 08:45:27;;;;;;;16.08;11.93;;;;;;;4.43;57.14;95130.44;4243136;27;20172;-68
2024/02/15 08:47:29;;;;;;;15.20;11.60;;;;;;;4.77;56.61;95130.59;4244254;27;20047;-69
2024/02/15 08:49:31;;;;;;;14.85;11.63;;;;;;;5.27;55.38;95128.56;4226466;28;20133;-69
2024/02/15 08:51:33;;;;;;;22.17;15.13;;;;;;;4.83;55.75;95135.31;4244317;27;20269;-68
2024/02/15 08:53:38;;;;;;;18.67;12.40;;;;;;;4.55;56.28;95139.94;4242079;27;20099;-68
2024/02/15 08:55:40;;;;;;;18.95;13.70;;;;;;;4.41;56.83;95137.50;4215699;28;20122;-69
2024/02/15 08:57:44;;;;;;;18.67;12.43;;;;;;;4.89;56.31;95135.69;4216806;28;20524;-70
2024/02/15 08:59:46;;;;;;;18.83;11.68;;;;;;;5.36;54.75;95130.50;4239059;27;20051;-70
2024/02/15 09:01:51;;;;;;;23.85;11.73;;;;;;;5.65;54.34;95127.41;4243906;27;20133;-69
2024/02/15 09:03:53;;;;;;;18.85;13.05;;;;;;;5.48;54.58;95126.94;4239187;27;20134;-68
2024/02/15 09:05:55;;;;;;;14.15;11.30;;;;;;;5.51;54.48;95131.09;4237882;27;20047;-70
2024/02/15 09:07:57;;;;;;;16.30;10.77;;;;;;;5.74;54.01;95129.28;4241979;27;20055;-69
2024/02/15 09:09:59;;;;;;;14.38;10.45;;;;;;;5.94;54.01;95119.97;4243898;27;20419;-67
2024/02/15 09:12:07;;;;;;;27.40;15.80;;;;;;;5.82;53.36;95126.94;4238683;27;20047;-69
2024/02/15 09:14:09;;;;;;;18.83;13.48;;;;;;;5.53;54.46;95122.22;4238342;27;20506;-69
2024/02/15 09:16:11;;;;;;;15.95;10.80;;;;;;;5.30;54.25;95120.56;4242999;27;20075;-69
2024/02/15 09:18:13;;;;;;;16.70;11.45;;;;;;;4.77;56.07;95138.38;4242313;27;20058;-68
2024/02/15 09:20:18;;;;;;;15.07;10.82;;;;;;;4.32;57.24;95128.63;4244443;27;20057;-69
2024/02/15 09:22:21;;;;;;;19.45;11.20;;;;;;;4.70;57.65;95117.22;4236414;27;20104;-68
2024/02/15 09:24:25;;;;;;;17.63;11.32;;;;;;;4.66;56.12;95118.41;4242339;27;20054;-69
2024/02/15 09:26:27;;;;;;;16.40;10.88;;;;;;;4.96;56.59;95119.66;4242560;27;20133;-71
2024/02/15 09:28:30;;;;;;;18.85;11.63;;;;;;;5.34;54.61;95117.59;4241156;27;20042;-70
2024/02/15 09:30:35;;;;;;;15.02;11.18;;;;;;;5.70;53.96;95107.94;4223891;28;20125;-65
2024/02/15 09:32:40;;;;;;;15.45;10.45;;;;;;;5.81;53.07;95098.44;4243727;27;20468;-68
2024/02/15 09:34:42;;;;;;;17.98;10.73;;;;;;;5.75;53.06;95113.59;4236960;27;20141;-68
2024/02/15 09:36:45;;;;;;;17.27;11.13;;;;;;;6.06;53.25;95098.19;4224482;28;20100;-69
2024/02/15 09:38:48;;;;;;;13.05;10.35;;;;;;;6.52;52.94;95099.72;4240034;27;20043;-70
2024/02/15 09:40:50;;;;;;;14.82;10.07;;;;;;;6.03;52.77;95098.47;4242208;27;20039;-66
2024/02/15 09:42:52;;;;;;;12.50;9.90;;;;;;;6.04;53.38;95094.91;4243210;27;20065;-70
2024/02/15 09:44:54;;;;;;;15.25;10.10;;;;;;;6.40;51.92;95087.72;4244261;27;20086;-71
2024/02/15 09:47:06;;;;;;;15.63;10.18;;;;;;;6.75;51.66;95097.88;4232620;27;20142;-67